Time,TemperatureF,DewpointF,PressureIn,WindDirection,WindDirectionDegrees,WindSpeedMPH,WindSpeedGustMPH,Humidity,HourlyPrecipIn,Conditions,Clouds,dailyrainin,SoftwareType,DateUTC
2013-03-22 00:02:00,27.6,17.0,29.80,WSW,257,1.0,-999.0,65,-99.99,,,0.00,weatherlink.com 1.10,2013-03-22 04:02:00,
2013-03-22 00:17:00,27.4,17.0,29.80,WNW,292,0.0,-999.0,66,-99.99,,,0.00,weatherlink.com 1.10,2013-03-22 04:17:00,
2013-03-22 00:32:00,27.5,18.0,29.80,SSW,211,3.0,-999.0,67,-99.99,,,0.00,weatherlink.com 1.10,2013-03-22 04:32:00,
2013-03-22 00:47:00,27.3,18.0,29.80,SW,227,2.0,-999.0,68,-99.99,,,0.00,weatherlink.com 1.10,2013-03-22 04:47:00,
2013-03-22 01:17:00,27.3,18.0,29.80,West,273,0.0,-999.0,69,-99.99,,,0.00,weatherlink.com 1.10,2013-03-22 05:17:00,
2013-03-22 01:32:00,27.2,19.0,29.80,SW,231,2.0,-999.0,70,-99.99,,,0.00,weatherlink.com 1.10,2013-03-22 05:32:00,
2013-03-22 01:47:00,27.1,19.0,29.80,SSW,207,2.0,-999.0,71,-99.99,,,0.00,weatherlink.com 1.10,2013-03-22 05:47:00,
2013-03-22 02:02:00,27.3,19.0,29.80,SW,215,2.0,-999.0,72,-99.99,,,0.00,weatherlink.com 1.10,2013-03-22 06:02:00,
2013-03-22 02:17:00,27.6,19.0,29.80,WSW,238,0.0,-999.0,71,-99.99,,,0.00,weatherlink.com 1.10,2013-03-22 06:17:00,
2013-03-22 02:32:00,27.6,20.0,29.80,WSW,242,1.0,-999.0,72,-99.99,,,0.00,weatherlink.com 1.10,2013-03-22 06:32:00,
2013-03-22 02:47:00,27.4,19.0,29.80,WSW,238,2.0,-999.0,72,-99.99,,,0.00,weatherlink.com 1.10,2013-03-22 06:47:00,
2013-03-22 03:02:00,27.4,20.0,29.80,West,267,2.0,-999.0,73,-99.99,,,0.00,weatherlink.com 1.10,2013-03-22 07:02:00,
2013-03-22 03:17:00,27.1,20.0,29.80,SW,235,1.0,-999.0,74,-99.99,,,0.00,weatherlink.com 1.10,2013-03-22 07:17:00,
2013-03-22 03:32:00,26.8,20.0,29.80,SW,224,0.0,-999.0,76,-99.99,,,0.00,weatherlink.com 1.10,2013-03-22 07:32:00,
2013-03-22 03:47:00,26.6,21.0,29.79,SSW,199,4.0,-999.0,78,-99.99,,,0.00,weatherlink.com 1.10,2013-03-22 07:47:00,
2013-03-22 04:02:00,26.5,21.0,29.79,WSW,250,3.0,-999.0,79,-99.99,,,0.00,weatherlink.com 1.10,2013-03-22 08:02:00,
2013-03-22 04:17:00,26.6,21.0,29.79,SW,234,1.0,-999.0,80,-99.99,,,0.00,weatherlink.com 1.10,2013-03-22 08:17:00,
2013-03-22 04:32:00,26.3,21.0,29.80,WSW,238,0.0,-999.0,81,-99.99,,,0.00,weatherlink.com 1.10,2013-03-22 08:32:00,
2013-03-22 04:47:00,26.0,22.0,29.79,WSW,242,0.0,-999.0,83,-99.99,,,0.00,weatherlink.com 1.10,2013-03-22 08:47:00,
2013-03-22 05:02:00,25.8,21.0,29.80,WSW,242,0.0,-999.0,83,-99.99,,,0.00,weatherlink.com 1.10,2013-03-22 09:02:00,
2013-03-22 05:17:00,25.9,22.0,29.80,SW,229,0.0,-999.0,84,-99.99,,,0.00,weatherlink.com 1.10,2013-03-22 09:17:00,
2013-03-22 05:32:00,26.1,22.0,29.80,SSW,211,0.0,-999.0,83,-99.99,,,0.00,weatherlink.com 1.10,2013-03-22 09:32:00,
2013-03-22 05:47:00,26.3,22.0,29.80,SW,225,2.0,-999.0,83,-99.99,,,0.00,weatherlink.com 1.10,2013-03-22 09:47:00,
2013-03-22 06:02:00,26.5,22.0,29.80,WSW,237,2.0,-999.0,82,-99.99,,,0.00,weatherlink.com 1.10,2013-03-22 10:02:00,
2013-03-22 06:17:00,26.3,21.0,29.81,SW,235,0.0,-999.0,81,-99.99,,,0.00,weatherlink.com 1.10,2013-03-22 10:17:00,
2013-03-22 06:32:00,26.1,21.0,29.82,SW,232,1.0,-999.0,81,-99.99,,,0.00,weatherlink.com 1.10,2013-03-22 10:32:00,
2013-03-22 06:47:00,26.2,21.0,29.82,WSW,242,1.0,-999.0,82,-99.99,,,0.00,weatherlink.com 1.10,2013-03-22 10:47:00,
2013-03-22 07:02:00,26.3,21.0,29.83,WNW,282,2.0,-999.0,81,-99.99,,,0.00,weatherlink.com 1.10,2013-03-22 11:02:00,
2013-03-22 07:17:00,26.3,21.0,29.83,WNW,284,2.0,-999.0,80,-99.99,,,0.00,weatherlink.com 1.10,2013-03-22 11:17:00,
2013-03-22 07:32:00,26.6,21.0,29.84,WSW,257,2.0,-999.0,79,-99.99,,,0.00,weatherlink.com 1.10,2013-03-22 11:32:00,
2013-03-22 07:47:00,26.9,21.0,29.85,WNW,294,2.0,-999.0,78,-99.99,,,0.00,weatherlink.com 1.10,2013-03-22 11:47:00,
2013-03-22 08:02:00,27.6,21.0,29.85,SW,230,2.0,-999.0,76,-99.99,,,0.00,weatherlink.com 1.10,2013-03-22 12:02:00,
2013-03-22 08:17:00,28.2,21.0,29.85,WSW,254,3.0,-999.0,74,-99.99,,,0.00,weatherlink.com 1.10,2013-03-22 12:17:00,
2013-03-22 08:32:00,28.8,21.0,29.85,WSW,237,1.0,-999.0,72,-99.99,,,0.00,weatherlink.com 1.10,2013-03-22 12:32:00,
2013-03-22 08:48:00,29.3,21.0,29.84,SW,230,5.0,-999.0,70,-99.99,,,0.00,weatherlink.com 1.10,2013-03-22 12:48:00,
2013-03-22 09:03:00,29.9,20.0,29.85,NW,308,4.0,-999.0,67,-99.99,,,0.00,weatherlink.com 1.10,2013-03-22 13:03:00,
2013-03-22 09:18:00,30.5,20.0,29.85,NW,319,6.0,-999.0,64,-99.99,,,0.00,weatherlink.com 1.10,2013-03-22 13:18:00,
2013-03-22 09:33:00,31.4,20.0,29.85,SW,219,4.0,-999.0,63,-99.99,,,0.00,weatherlink.com 1.10,2013-03-22 13:33:00,
2013-03-22 09:48:00,31.8,20.0,29.85,WNW,301,7.0,-999.0,62,-99.99,,,0.00,weatherlink.com 1.10,2013-03-22 13:48:00,
2013-03-22 10:03:00,32.1,20.0,29.85,SW,214,11.0,-999.0,62,-99.99,,,0.00,weatherlink.com 1.10,2013-03-22 14:03:00,
2013-03-22 10:18:00,32.4,21.0,29.85,SSW,205,8.0,-999.0,62,-99.99,,,0.00,weatherlink.com 1.10,2013-03-22 14:18:00,
2013-03-22 10:33:00,33.3,21.0,29.85,West,269,5.0,-999.0,60,-99.99,,,0.00,weatherlink.com 1.10,2013-03-22 14:33:00,
2013-03-22 10:48:00,34.0,21.0,29.85,West,278,6.0,-999.0,59,-99.99,,,0.00,weatherlink.com 1.10,2013-03-22 14:48:00,
2013-03-22 11:03:00,34.3,20.0,29.85,SW,216,6.0,-999.0,57,-99.99,,,0.00,weatherlink.com 1.10,2013-03-22 15:03:00,
2013-03-22 11:18:00,34.6,20.0,29.85,WNW,298,3.0,-999.0,56,-99.99,,,0.00,weatherlink.com 1.10,2013-03-22 15:18:00,
2013-03-22 11:33:00,35.2,20.0,29.85,WSW,246,8.0,-999.0,55,-99.99,,,0.00,weatherlink.com 1.10,2013-03-22 15:33:00,
2013-03-22 11:48:00,35.5,19.0,29.85,WSW,242,3.0,-999.0,52,-99.99,,,0.00,weatherlink.com 1.10,2013-03-22 15:48:00,
2013-03-22 12:03:00,35.0,19.0,29.85,West,272,3.0,-999.0,53,-99.99,,,0.00,weatherlink.com 1.10,2013-03-22 16:03:00,
2013-03-22 12:15:00,32.8,21.6,29.95,SSW,208,2.0,3.0,63,0.00,,,0.00,Wunderground v.1.15,2013-03-22 16:15:00,
2013-03-22 12:18:00,34.9,19.0,29.85,WSW,257,7.0,-999.0,53,-99.99,,,0.00,weatherlink.com 1.10,2013-03-22 16:18:00,
2013-03-22 12:20:00,32.8,21.6,29.95,SW,236,3.0,4.0,63,0.00,,,0.00,Wunderground v.1.15,2013-03-22 16:20:00,
2013-03-22 12:25:00,32.8,21.6,29.95,SW,224,3.0,3.0,63,0.00,,,0.00,Wunderground v.1.15,2013-03-22 16:25:00,
2013-03-22 12:30:00,32.8,21.6,29.95,SW,217,2.0,3.0,63,0.00,,,0.00,Wunderground v.1.15,2013-03-22 16:30:00,
2013-03-22 12:33:00,34.6,19.0,29.85,SW,228,9.0,-999.0,54,-99.99,,,0.00,weatherlink.com 1.10,2013-03-22 16:33:00,
2013-03-22 12:35:00,32.8,21.6,29.95,NNW,327,2.0,6.0,63,0.00,,,0.00,Wunderground v.1.15,2013-03-22 16:35:00,
2013-03-22 12:40:00,32.8,21.2,29.95,WSW,246,3.0,6.0,62,0.00,,,0.00,Wunderground v.1.15,2013-03-22 16:40:00,
2013-03-22 12:45:00,32.8,21.2,29.95,South,171,3.0,6.0,62,0.00,,,0.00,Wunderground v.1.15,2013-03-22 16:45:00,
2013-03-22 12:48:00,34.6,21.0,29.85,WNW,292,6.0,-999.0,57,-99.99,,,0.00,weatherlink.com 1.10,2013-03-22 16:48:00,
2013-03-22 12:50:00,32.8,21.6,29.95,WNW,296,3.0,6.0,63,0.00,,,0.00,Wunderground v.1.15,2013-03-22 16:50:00,
2013-03-22 12:55:00,32.7,21.5,29.95,SSW,203,3.0,5.0,63,0.00,,,0.00,Wunderground v.1.15,2013-03-22 16:55:00,
2013-03-22 13:00:00,32.7,21.9,29.96,WSW,253,4.0,4.0,64,0.00,,,0.00,Wunderground v.1.15,2013-03-22 17:00:00,
2013-03-22 13:03:00,34.4,21.0,29.85,SW,220,4.0,-999.0,58,-99.99,,,0.00,weatherlink.com 1.10,2013-03-22 17:03:00,
2013-03-22 13:05:00,32.6,21.8,29.96,SSW,213,4.0,4.0,64,0.00,,,0.00,Wunderground v.1.15,2013-03-22 17:05:00,
2013-03-22 13:10:00,32.6,21.8,29.96,West,269,4.0,4.0,64,0.00,,,0.00,Wunderground v.1.15,2013-03-22 17:10:00,
2013-03-22 13:15:00,32.6,21.8,29.96,SSW,211,3.0,4.0,64,0.00,,,0.00,Wunderground v.1.15,2013-03-22 17:15:00,
2013-03-22 13:18:00,34.9,21.0,29.85,WNW,286,3.0,-999.0,57,-99.99,,,0.00,weatherlink.com 1.10,2013-03-22 17:18:00,
2013-03-22 13:20:00,32.5,21.7,29.96,West,281,2.0,4.0,64,0.00,,,0.00,Wunderground v.1.15,2013-03-22 17:20:00,
2013-03-22 13:25:00,32.4,21.6,29.96,WSW,241,3.0,4.0,64,0.00,,,0.00,Wunderground v.1.15,2013-03-22 17:25:00,
2013-03-22 13:33:00,35.7,20.0,29.84,WSW,257,3.0,-999.0,54,-99.99,,,0.00,weatherlink.com 1.10,2013-03-22 17:33:00,
2013-03-22 13:48:00,36.4,21.0,29.85,SW,233,8.0,-999.0,54,-99.99,,,0.00,weatherlink.com 1.10,2013-03-22 17:48:00,
2013-03-22 14:03:00,36.3,21.0,29.84,WSW,252,6.0,-999.0,54,-99.99,,,0.00,weatherlink.com 1.10,2013-03-22 18:03:00,
2013-03-22 14:18:00,36.3,20.0,29.84,West,275,8.0,-999.0,53,-99.99,,,0.00,weatherlink.com 1.10,2013-03-22 18:18:00,
2013-03-22 14:33:00,36.6,21.0,29.84,WNW,284,3.0,-999.0,53,-99.99,,,0.00,weatherlink.com 1.10,2013-03-22 18:33:00,
2013-03-22 14:48:00,36.8,21.0,29.84,West,274,7.0,-999.0,53,-99.99,,,0.00,weatherlink.com 1.10,2013-03-22 18:48:00,
2013-03-22 15:03:00,37.7,21.0,29.84,WSW,244,6.0,-999.0,51,-99.99,,,0.00,weatherlink.com 1.10,2013-03-22 19:03:00,
2013-03-22 15:18:00,38.4,21.0,29.84,West,281,3.0,-999.0,49,-99.99,,,0.00,weatherlink.com 1.10,2013-03-22 19:18:00,
2013-03-22 15:33:00,37.4,24.0,29.84,WSW,242,6.0,-999.0,58,-99.99,,,0.00,weatherlink.com 1.10,2013-03-22 19:33:00,
2013-03-22 15:48:00,37.3,23.0,29.84,WSW,248,5.0,-999.0,56,-99.99,,,0.00,weatherlink.com 1.10,2013-03-22 19:48:00,
2013-03-22 16:03:00,37.6,23.0,29.84,SW,234,2.0,-999.0,55,-99.99,,,0.00,weatherlink.com 1.10,2013-03-22 20:03:00,
2013-03-22 16:18:00,37.7,22.0,29.84,SW,225,4.0,-999.0,54,-99.99,,,0.00,weatherlink.com 1.10,2013-03-22 20:18:00,
2013-03-22 16:33:00,39.2,23.0,29.85,West,263,8.0,-999.0,53,-99.99,,,0.00,weatherlink.com 1.10,2013-03-22 20:33:00,
2013-03-22 16:48:00,38.7,22.0,29.85,SW,228,9.0,-999.0,52,-99.99,,,0.00,weatherlink.com 1.10,2013-03-22 20:48:00,
2013-03-22 17:03:00,38.0,22.0,29.85,SSW,206,11.0,-999.0,52,-99.99,,,0.00,weatherlink.com 1.10,2013-03-22 21:03:00,
2013-03-22 17:18:00,37.8,22.0,29.86,West,260,6.0,-999.0,53,-99.99,,,0.00,weatherlink.com 1.10,2013-03-22 21:18:00,
2013-03-22 17:33:00,37.7,23.0,29.86,SW,225,8.0,-999.0,56,-99.99,,,0.00,weatherlink.com 1.10,2013-03-22 21:33:00,
2013-03-22 17:48:00,37.2,24.0,29.87,SW,231,5.0,-999.0,60,-99.99,,,0.00,weatherlink.com 1.10,2013-03-22 21:48:00,
2013-03-22 18:05:00,36.7,24.0,29.88,SSW,211,4.0,-999.0,60,-99.99,,,0.00,weatherlink.com 1.10,2013-03-22 22:05:00,
2013-03-22 18:18:00,35.7,24.0,29.89,SSW,211,7.0,-999.0,62,-99.99,,,0.00,weatherlink.com 1.10,2013-03-22 22:18:00,
2013-03-22 18:34:00,34.9,24.0,29.89,SSW,211,5.0,-999.0,65,-99.99,,,0.00,weatherlink.com 1.10,2013-03-22 22:34:00,
2013-03-22 18:49:00,34.4,23.0,29.90,WSW,239,5.0,-999.0,64,-99.99,,,0.00,weatherlink.com 1.10,2013-03-22 22:49:00,
2013-03-22 19:04:00,34.0,23.0,29.91,SSW,213,8.0,-999.0,65,-99.99,,,0.00,weatherlink.com 1.10,2013-03-22 23:04:00,
2013-03-22 19:19:00,33.8,23.0,29.91,WNW,286,2.0,-999.0,65,-99.99,,,0.00,weatherlink.com 1.10,2013-03-22 23:19:00,
2013-03-22 19:34:00,33.5,22.0,29.91,WNW,290,3.0,-999.0,64,-99.99,,,0.00,weatherlink.com 1.10,2013-03-22 23:34:00,
2013-03-22 19:49:00,33.2,22.0,29.92,WSW,242,3.0,-999.0,64,-99.99,,,0.00,weatherlink.com 1.10,2013-03-22 23:49:00,
2013-03-22 20:04:00,33.1,22.0,29.93,West,272,10.0,-999.0,64,-99.99,,,0.00,weatherlink.com 1.10,2013-03-23 00:04:00,
2013-03-22 20:19:00,33.1,22.0,29.93,SW,223,5.0,-999.0,64,-99.99,,,0.00,weatherlink.com 1.10,2013-03-23 00:19:00,
2013-03-22 20:34:00,33.0,22.0,29.94,SW,228,6.0,-999.0,64,-99.99,,,0.00,weatherlink.com 1.10,2013-03-23 00:34:00,
2013-03-22 20:49:00,33.0,22.0,29.94,WSW,238,2.0,-999.0,63,-99.99,,,0.00,weatherlink.com 1.10,2013-03-23 00:49:00,
2013-03-22 21:04:00,32.9,21.0,29.95,WSW,252,2.0,-999.0,63,-99.99,,,0.00,weatherlink.com 1.10,2013-03-23 01:04:00,
2013-03-22 21:19:00,32.8,21.0,29.95,SW,236,4.0,-999.0,63,-99.99,,,0.00,weatherlink.com 1.10,2013-03-23 01:19:00,
2013-03-22 21:34:00,32.8,21.0,29.95,WNW,285,2.0,-999.0,63,-99.99,,,0.00,weatherlink.com 1.10,2013-03-23 01:34:00,
2013-03-22 21:50:00,32.8,21.0,29.95,WNW,297,4.0,-999.0,63,-99.99,,,0.00,weatherlink.com 1.10,2013-03-23 01:50:00,
2013-03-22 22:04:00,32.6,22.0,29.96,SW,235,8.0,-999.0,64,-99.99,,,0.00,weatherlink.com 1.10,2013-03-23 02:04:00,
2013-03-22 22:20:00,32.5,21.0,29.96,WNW,299,4.0,-999.0,64,-99.99,,,0.00,weatherlink.com 1.10,2013-03-23 02:20:00,
2013-03-22 22:35:00,32.4,21.0,29.96,WNW,288,1.0,-999.0,64,-99.99,,,0.00,weatherlink.com 1.10,2013-03-23 02:35:00,
2013-03-22 22:50:00,32.3,22.0,29.96,WNW,288,2.0,-999.0,65,-99.99,,,0.00,weatherlink.com 1.10,2013-03-23 02:50:00,
2013-03-22 23:05:00,32.2,22.0,29.96,WSW,239,0.0,-999.0,65,-99.99,,,0.00,weatherlink.com 1.10,2013-03-23 03:05:00,
2013-03-22 23:20:00,32.1,21.0,29.96,WNW,284,1.0,-999.0,64,-99.99,,,0.00,weatherlink.com 1.10,2013-03-23 03:20:00,
2013-03-22 23:35:00,32.1,21.0,29.96,WNW,283,1.0,-999.0,64,-99.99,,,0.00,weatherlink.com 1.10,2013-03-23 03:35:00,
2013-03-22 23:50:00,32.0,21.0,29.96,SW,233,1.0,-999.0,63,-99.99,,,0.00,weatherlink.com 1.10,2013-03-23 03:50:00,